createdAt,value
2023-03-28T00:00:52.030Z,102377.75
2023-03-28T00:03:22.495Z,102394.16
2023-03-28T00:05:50.373Z,102389.13
2023-03-28T00:08:17.837Z,102387.97
2023-03-28T00:10:45.400Z,102392.06
2023-03-28T00:13:14.175Z,102394.13
2023-03-28T00:15:42.408Z,102393.13
2023-03-28T00:18:12.665Z,102393.50
2023-03-28T00:20:42.864Z,102395.47
2023-03-28T00:23:12.230Z,102395.72
2023-03-28T00:25:43.716Z,102391.94
2023-03-28T00:28:10.542Z,102393.78
2023-03-28T00:30:37.356Z,102380.81
2023-03-28T00:33:05.510Z,102377.44
2023-03-28T00:35:33.200Z,102377.88
2023-03-28T00:38:00.019Z,102366.56
2023-03-28T00:40:27.489Z,102385.72
2023-03-28T00:42:54.533Z,102372.94
2023-03-28T00:45:21.597Z,102368.53
2023-03-28T00:47:51.699Z,102368.22
2023-03-28T00:50:28.968Z,102368.38
2023-03-28T00:53:09.527Z,102365.56
2023-03-28T00:55:38.638Z,102361.97
2023-03-28T00:58:11.130Z,102363.28
2023-03-28T01:00:41.378Z,102359.66
2023-03-28T01:03:09.216Z,102348.16
2023-03-28T01:05:37.186Z,102356.09
2023-03-28T01:08:08.909Z,102344.41
2023-03-28T01:10:36.028Z,102344.41
2023-03-28T01:13:06.102Z,102337.66
2023-03-28T01:15:33.827Z,102344.41
2023-03-28T01:18:03.776Z,102340.25
2023-03-28T01:20:51.597Z,102340.31
2023-03-28T01:23:52.977Z,102336.69
2023-03-28T01:27:35.502Z,102343.34
2023-03-28T01:30:20.815Z,102341.06
2023-03-28T01:33:26.004Z,102346.13
2023-03-28T01:36:34.817Z,102349.56
2023-03-28T01:39:09.485Z,102351.91
2023-03-28T01:42:02.645Z,102341.31
2023-03-28T01:44:36.430Z,102345.50
2023-03-28T01:47:20.087Z,102347.72
2023-03-28T01:50:03.404Z,102343.06
2023-03-28T01:52:57.814Z,102346.09
2023-03-28T01:55:30.329Z,102351.22
2023-03-28T01:58:02.223Z,102357.63
2023-03-28T02:00:43.682Z,102348.06
2023-03-28T02:03:22.154Z,102348.19
2023-03-28T02:05:57.228Z,102343.06
2023-03-28T02:08:29.421Z,102348.19
2023-03-28T02:11:16.931Z,102346.78
2023-03-28T02:13:58.242Z,102339.69
2023-03-28T02:16:44.366Z,102349.22
2023-03-28T02:19:31.377Z,102344.22
2023-03-28T02:22:16.768Z,102341.66
2023-03-28T02:24:56.495Z,102335.16
2023-03-28T02:27:49.237Z,102336.06
2023-03-28T02:30:23.597Z,102332.81
2023-03-28T02:32:51.688Z,102326.06
2023-03-28T02:35:25.070Z,102327.34
2023-03-28T02:37:54.895Z,102322.66
2023-03-28T02:41:04.523Z,102328.50
2023-03-28T02:43:41.730Z,102321.94
2023-03-28T02:46:56.130Z,102334.63
2023-03-28T02:49:50.360Z,102326.94
2023-03-28T02:52:40.333Z,102317.41
2023-03-28T02:55:17.966Z,102329.56
2023-03-28T02:58:16.177Z,102325.31
2023-03-28T03:00:43.193Z,102319.41
2023-03-28T03:03:14.156Z,102321.50
2023-03-28T03:05:41.477Z,102317.28
2023-03-28T03:08:08.339Z,102319.50
2023-03-28T03:10:35.756Z,102318.81
2023-03-28T03:13:02.685Z,102316.94
2023-03-28T03:15:30.842Z,102317.28
2023-03-28T03:17:59.019Z,102317.03
2023-03-28T03:20:33.738Z,102313.91
2023-03-28T03:23:02.222Z,102318.00
2023-03-28T03:25:31.427Z,102309.38
2023-03-28T03:28:21.466Z,102317.16
2023-03-28T03:30:51.890Z,102308.66
2023-03-28T03:33:52.163Z,102313.31
2023-03-28T03:36:24.132Z,102310.28
2023-03-28T03:38:51.029Z,102298.41
2023-03-28T03:41:21.425Z,102306.31
2023-03-28T03:43:48.974Z,102310.16
2023-03-28T03:46:15.875Z,102296.19
2023-03-28T03:48:50.062Z,102305.97
2023-03-28T03:51:18.173Z,102299.78
2023-03-28T03:53:46.737Z,102300.88
2023-03-28T03:56:17.971Z,102294.34
2023-03-28T03:58:56.570Z,102299.56
2023-03-28T04:01:30.003Z,102293.53
2023-03-28T04:04:04.210Z,102291.06
2023-03-28T04:06:46.996Z,102294.56
2023-03-28T04:09:13.970Z,102287.13
2023-03-28T04:12:01.887Z,102292.34
2023-03-28T04:14:30.143Z,102291.19
2023-03-28T04:17:23.382Z,102289.19
2023-03-28T04:19:50.491Z,102285.69
2023-03-28T04:22:18.772Z,102290.16
2023-03-28T04:24:53.527Z,102287.06
2023-03-28T04:27:42.009Z,102288.09
2023-03-28T04:30:11.143Z,102285.19
2023-03-28T04:33:12.954Z,102280.41
2023-03-28T04:35:41.594Z,102286.22
2023-03-28T04:38:09.856Z,102280.53
2023-03-28T04:40:58.026Z,102285.41
2023-03-28T04:43:44.882Z,102283.06
2023-03-28T04:46:11.824Z,102276.63
2023-03-28T04:48:38.874Z,102283.91
2023-03-28T04:51:06.682Z,102289.38
2023-03-28T04:53:37.874Z,102286.13
2023-03-28T04:56:23.481Z,102284.75
2023-03-28T04:58:50.513Z,102280.63
2023-03-28T05:01:18.093Z,102279.81
2023-03-28T05:04:04.788Z,102282.56
2023-03-28T05:06:32.132Z,102294.41
2023-03-28T05:09:00.999Z,102290.59
2023-03-28T05:11:31.181Z,102289.88
2023-03-28T05:13:58.024Z,102284.28
2023-03-28T05:16:41.983Z,102284.38
2023-03-28T05:19:27.105Z,102290.06
2023-03-28T05:22:04.951Z,102286.94
2023-03-28T05:24:31.831Z,102288.31
2023-03-28T05:26:58.573Z,102287.66
2023-03-28T05:29:26.129Z,102297.56
2023-03-28T05:31:53.419Z,102303.06
2023-03-28T05:34:29.794Z,102296.88
2023-03-28T05:36:58.075Z,102294.41
2023-03-28T05:39:29.278Z,102297.25
2023-03-28T05:42:02.609Z,102296.78
2023-03-28T05:44:29.681Z,102300.25
2023-03-28T05:47:14.554Z,102297.56
2023-03-28T05:49:42.887Z,102288.78
2023-03-28T05:52:10.723Z,102294.84
2023-03-28T05:54:39.024Z,102300.84
2023-03-28T05:57:06.511Z,102302.19
2023-03-28T05:59:34.267Z,102302.19
2023-03-28T06:02:03.385Z,102304.41
2023-03-28T06:04:30.366Z,102317.66
2023-03-28T06:06:57.205Z,102300.25
2023-03-28T06:09:26.234Z,102305.72
2023-03-28T06:11:58.504Z,102305.81
2023-03-28T06:14:25.974Z,102303.66
2023-03-28T06:16:54.860Z,102309.28
2023-03-28T06:19:22.177Z,102317.47
2023-03-28T06:21:54.819Z,102312.09
2023-03-28T06:24:21.938Z,102316.34
2023-03-28T06:26:49.107Z,102314.53
2023-03-28T06:29:19.862Z,102308.81
2023-03-28T06:31:48.787Z,102313.34
2023-03-28T06:34:17.526Z,102316.75
2023-03-28T06:37:02.049Z,102316.28
2023-03-28T06:39:43.358Z,102315.50
2023-03-28T06:42:10.894Z,102321.38
2023-03-28T06:44:54.285Z,102327.09
2023-03-28T06:47:30.339Z,102326.75
2023-03-28T06:49:57.747Z,102319.88
2023-03-28T06:52:51.054Z,102328.41
2023-03-28T06:55:18.038Z,102327.72
2023-03-28T06:57:44.781Z,102322.28
2023-03-28T07:00:21.727Z,102326.72
2023-03-28T07:03:07.099Z,102330.00
2023-03-28T07:05:42.205Z,102332.63
2023-03-28T07:08:10.747Z,102326.28
2023-03-28T07:10:39.163Z,102335.25
2023-03-28T07:13:07.299Z,102331.63
2023-03-28T07:15:36.179Z,102329.25
2023-03-28T07:18:05.926Z,102325.06
2023-03-28T07:20:33.155Z,102328.69
2023-03-28T07:23:00.153Z,102336.47
2023-03-28T07:25:27.475Z,102331.75
2023-03-28T07:27:54.428Z,102331.66
2023-03-28T07:30:21.389Z,102320.16
2023-03-28T07:32:56.691Z,102316.28
2023-03-28T07:35:30.924Z,102314.16
2023-03-28T07:37:59.228Z,102314.16
2023-03-28T07:40:45.751Z,102310.81
2023-03-28T07:43:12.679Z,102308.44
2023-03-28T07:45:39.578Z,102298.91
2023-03-28T07:48:06.918Z,102309.41
2023-03-28T07:50:33.955Z,102297.19
2023-03-28T07:53:01.273Z,102299.53
2023-03-28T07:55:41.820Z,102310.34
2023-03-28T07:58:12.787Z,102302.84
2023-03-28T08:00:43.152Z,102315.78
2023-03-28T08:03:39.702Z,102319.31
2023-03-28T08:06:20.081Z,102323.19
2023-03-28T08:08:56.036Z,102322.53
2023-03-28T08:11:29.409Z,102312.22
2023-03-28T08:13:56.449Z,102322.50
2023-03-28T08:16:25.048Z,102316.41
2023-03-28T08:19:09.109Z,102301.66
2023-03-28T08:21:44.767Z,102310.50
2023-03-28T08:24:17.347Z,102299.75
2023-03-28T08:26:58.401Z,102300.63
2023-03-28T08:29:25.756Z,102291.31
2023-03-28T08:31:53.020Z,102288.75
2023-03-28T08:34:21.183Z,102283.16
2023-03-28T08:36:48.993Z,102292.69
2023-03-28T08:39:26.002Z,102283.59
2023-03-28T08:41:52.765Z,102288.53
2023-03-28T08:44:41.770Z,102292.91
2023-03-28T08:47:19.169Z,102289.94
2023-03-28T08:49:53.363Z,102296.53
2023-03-28T08:52:21.519Z,102290.41
2023-03-28T08:55:02.462Z,102292.50
2023-03-28T08:57:30.569Z,102290.97
2023-03-28T09:00:20.452Z,102299.34
2023-03-28T09:02:48.698Z,102292.41
2023-03-28T09:05:29.196Z,102283.72
2023-03-28T09:08:23.801Z,102288.19
2023-03-28T09:11:12.688Z,102293.75
2023-03-28T09:14:06.999Z,102292.88
2023-03-28T09:17:00.746Z,102296.72
2023-03-28T09:19:48.807Z,102280.41
2023-03-28T09:23:08.157Z,102280.16
2023-03-28T09:26:20.240Z,102272.25
2023-03-28T09:29:16.305Z,102262.03
2023-03-28T09:31:49.657Z,102262.03
2023-03-28T09:34:24.119Z,102258.53
2023-03-28T09:36:55.477Z,102254.22
2023-03-28T09:39:33.420Z,102246.66
2023-03-28T09:42:19.659Z,102248.72
2023-03-28T09:45:25.136Z,102242.84
2023-03-28T09:48:22.386Z,102235.00
2023-03-28T09:50:49.652Z,102230.69
2023-03-28T09:53:43.417Z,102222.78
2023-03-28T09:56:13.668Z,102224.66
2023-03-28T09:59:00.126Z,102217.53
2023-03-28T10:01:43.192Z,102213.06
2023-03-28T10:04:28.483Z,102211.00
2023-03-28T10:07:13.458Z,102208.72
2023-03-28T10:09:54.002Z,102203.63
2023-03-28T10:12:29.120Z,102214.84
2023-03-28T10:14:56.099Z,102207.66
2023-03-28T10:17:41.184Z,102195.06
2023-03-28T10:20:17.993Z,102198.81
2023-03-28T10:22:51.859Z,102202.53
2023-03-28T10:25:49.254Z,102192.09
2023-03-28T10:28:43.891Z,102202.34
2023-03-28T10:31:22.900Z,102192.38
2023-03-28T10:33:53.188Z,102191.25
2023-03-28T10:36:53.050Z,102192.06
2023-03-28T10:39:31.177Z,102182.97
2023-03-28T10:42:16.668Z,102182.25
2023-03-28T10:45:42.681Z,102162.84
2023-03-28T10:48:19.009Z,102173.41
2023-03-28T10:50:51.813Z,102168.41
2023-03-28T10:53:27.573Z,102166.25
2023-03-28T10:56:15.791Z,102162.00
2023-03-28T10:58:52.211Z,102161.75
2023-03-28T11:01:33.257Z,102147.47
2023-03-28T11:04:24.399Z,102144.44
2023-03-28T11:07:31.195Z,102131.50
2023-03-28T11:10:30.938Z,102129.31
2023-03-28T11:13:40.989Z,102131.22
2023-03-28T11:16:21.676Z,102128.94
2023-03-28T11:19:35.787Z,102124.00
2023-03-28T11:22:12.829Z,102110.69
2023-03-28T11:25:07.389Z,102087.81
2023-03-28T11:28:03.666Z,102085.75
2023-03-28T11:30:36.217Z,102083.72
2023-03-28T11:33:48.142Z,102086.84
2023-03-28T11:36:34.098Z,102085.28
2023-03-28T11:39:33.780Z,102076.41
2023-03-28T11:42:06.989Z,102070.22
2023-03-28T11:44:59.056Z,102063.97
2023-03-28T11:47:49.658Z,102062.31
2023-03-28T11:50:31.115Z,102052.16
2023-03-28T11:53:15.470Z,102057.41
2023-03-28T11:56:06.790Z,102057.28
2023-03-28T11:58:56.636Z,102056.72
2023-03-28T12:01:27.183Z,102049.66
2023-03-28T12:03:59.090Z,102049.84
2023-03-28T12:06:37.359Z,102039.78
2023-03-28T12:09:44.399Z,102042.22
2023-03-28T12:12:14.555Z,102046.03
2023-03-28T12:15:03.132Z,102042.22
2023-03-28T12:17:47.840Z,102027.59
2023-03-28T12:20:29.189Z,102033.38
2023-03-28T12:23:00.204Z,102027.72
2023-03-28T12:26:21.682Z,102024.81
2023-03-28T12:28:53.858Z,102008.88
2023-03-28T12:31:28.961Z,101995.06
2023-03-28T12:34:31.942Z,101990.75
2023-03-28T12:37:25.063Z,101979.44
2023-03-28T12:40:24.923Z,101971.03
2023-03-28T12:42:54.778Z,101971.38
2023-03-28T12:45:32.627Z,101963.56
2023-03-28T12:48:06.589Z,101968.81
2023-03-28T12:50:48.540Z,101966.81
2023-03-28T12:53:17.265Z,101970.88
2023-03-28T12:55:49.228Z,101964.63
2023-03-28T12:58:20.842Z,101967.16
2023-03-28T13:01:09.228Z,101963.44
2023-03-28T13:04:05.468Z,101962.81
2023-03-28T13:07:01.132Z,101950.63
2023-03-28T13:09:56.146Z,101960.25
2023-03-28T13:12:37.763Z,101958.34
2023-03-28T13:15:13.678Z,101956.22
2023-03-28T13:17:48.706Z,101954.16
2023-03-28T13:20:15.651Z,101949.69
2023-03-28T13:23:13.038Z,101948.59
2023-03-28T13:25:40.176Z,101945.22
2023-03-28T13:28:13.059Z,101934.94
2023-03-28T13:30:44.512Z,101928.41
2023-03-28T13:33:21.180Z,101914.75
2023-03-28T13:35:50.638Z,101929.75
2023-03-28T13:38:29.656Z,101929.91
2023-03-28T13:41:06.471Z,101921.44
2023-03-28T13:43:35.761Z,101929.53
2023-03-28T13:46:08.515Z,101918.72
2023-03-28T13:49:12.983Z,101923.00
2023-03-28T13:51:54.944Z,101923.53
2023-03-28T13:54:22.884Z,101910.19
2023-03-28T13:56:51.256Z,101909.88
2023-03-28T13:59:23.467Z,101905.53
2023-03-28T14:01:57.541Z,101899.53
2023-03-28T14:04:25.960Z,101895.66
2023-03-28T14:06:55.249Z,101884.22
2023-03-28T14:09:28.347Z,101883.00
2023-03-28T14:11:56.926Z,101874.81
2023-03-28T14:14:33.888Z,101878.16
2023-03-28T14:17:03.731Z,101867.22
2023-03-28T14:19:55.165Z,101857.81
2023-03-28T14:22:25.315Z,101852.66
2023-03-28T14:24:54.076Z,101856.59
2023-03-28T14:27:48.197Z,101844.19
2023-03-28T14:30:39.373Z,101842.59
2023-03-28T14:33:14.355Z,101835.53
2023-03-28T14:35:51.111Z,101835.31
2023-03-28T14:38:38.409Z,101808.19
2023-03-28T14:41:14.463Z,101814.88
2023-03-28T14:43:41.342Z,101810.00
2023-03-28T14:46:09.993Z,101804.66
2023-03-28T14:48:38.232Z,101794.91
2023-03-28T14:51:05.983Z,101782.13
2023-03-28T14:53:45.468Z,101782.09
2023-03-28T14:56:17.223Z,101782.22
2023-03-28T14:58:46.149Z,101771.94
2023-03-28T15:01:22.796Z,101776.59
2023-03-28T15:03:57.511Z,101757.38
2023-03-28T15:06:25.252Z,101749.84
2023-03-28T15:08:57.508Z,101765.41
2023-03-28T15:11:29.859Z,101752.72
2023-03-28T15:14:04.242Z,101756.56
2023-03-28T15:16:32.901Z,101755.53
2023-03-28T15:19:09.373Z,101749.50
2023-03-28T15:21:39.926Z,101738.06
2023-03-28T15:24:11.465Z,101740.66
2023-03-28T15:26:43.329Z,101739.06
2023-03-28T15:29:12.408Z,101737.22
2023-03-28T15:31:47.795Z,101709.00
2023-03-28T15:34:27.927Z,101718.94
2023-03-28T15:37:00.632Z,101712.25
2023-03-28T15:39:29.944Z,101714.28
2023-03-28T15:42:01.849Z,101711.09
2023-03-28T15:44:31.699Z,101694.84
2023-03-28T15:47:02.153Z,101713.84
2023-03-28T15:52:23.980Z,101703.63
2023-03-28T15:54:53.592Z,101706.97
2023-03-28T15:57:22.553Z,101690.97
2023-03-28T15:59:55.270Z,101701.31
2023-03-28T16:02:25.835Z,101695.22
2023-03-28T16:05:12.276Z,101683.81
2023-03-28T16:07:48.647Z,101688.97
2023-03-28T16:10:24.622Z,101691.94
2023-03-28T16:13:14.873Z,101694.19
2023-03-28T16:16:00.746Z,101694.63
2023-03-28T16:18:45.147Z,101690.63
2023-03-28T16:21:13.018Z,101693.22
2023-03-28T16:23:39.890Z,101689.69
2023-03-28T16:26:07.224Z,101686.59
2023-03-28T16:28:34.990Z,101682.38
2023-03-28T16:31:02.372Z,101675.72
2023-03-28T16:33:29.779Z,101677.88
2023-03-28T16:35:56.897Z,101685.91
2023-03-28T16:38:24.063Z,101686.28
2023-03-28T16:40:51.794Z,101690.09
2023-03-28T16:43:18.773Z,101667.91
2023-03-28T16:45:47.308Z,101677.47
2023-03-28T16:48:14.429Z,101689.69
2023-03-28T16:50:41.316Z,101678.44
2023-03-28T16:53:08.271Z,101681.50
2023-03-28T16:55:35.304Z,101695.28
2023-03-28T16:58:03.057Z,101687.50
2023-03-28T17:00:37.467Z,101691.47
2023-03-28T17:03:05.461Z,101691.19
2023-03-28T17:05:32.457Z,101695.69
2023-03-28T17:07:59.796Z,101701.78
2023-03-28T17:10:29.008Z,101698.78
2023-03-28T17:12:56.835Z,101713.53
2023-03-28T17:15:23.702Z,101714.47
2023-03-28T17:17:50.580Z,101723.25
2023-03-28T17:20:18.029Z,101720.44
2023-03-28T17:22:46.460Z,101717.97
2023-03-28T17:25:13.471Z,101711.84
2023-03-28T17:27:40.565Z,101705.00
2023-03-28T17:30:09.757Z,101699.28
2023-03-28T17:32:36.846Z,101687.69
2023-03-28T17:35:04.114Z,101683.50
2023-03-28T17:37:31.739Z,101673.59
2023-03-28T17:39:58.616Z,101671.06
2023-03-28T17:42:26.038Z,101678.63
2023-03-28T17:44:54.761Z,101668.94
2023-03-28T17:47:22.670Z,101666.03
2023-03-28T17:49:49.738Z,101684.84
2023-03-28T17:52:16.855Z,101681.81
2023-03-28T17:54:43.885Z,101687.22
2023-03-28T17:57:11.036Z,101688.63
2023-03-28T17:59:38.280Z,101682.88
2023-03-28T18:02:05.365Z,101682.78
2023-03-28T18:04:32.257Z,101676.13
2023-03-28T18:07:21.337Z,101685.56
2023-03-28T18:09:48.694Z,101673.59
2023-03-28T18:12:15.957Z,101667.09
2023-03-28T18:14:43.412Z,101663.75
2023-03-28T18:17:10.453Z,101657.09
2023-03-28T18:19:37.716Z,101635.41
2023-03-28T18:22:04.856Z,101647.63
2023-03-28T18:24:34.322Z,101643.34
2023-03-28T18:27:01.782Z,101618.44
2023-03-28T18:29:28.668Z,101611.69
2023-03-28T18:31:55.533Z,101610.50
2023-03-28T18:34:22.489Z,101628.84
2023-03-28T18:36:49.356Z,101625.28
2023-03-28T18:39:16.674Z,101606.84
2023-03-28T18:41:43.826Z,101611.78
2023-03-28T18:44:11.669Z,101598.03
2023-03-28T18:46:40.040Z,101595.16
2023-03-28T18:49:07.283Z,101578.69
2023-03-28T18:51:34.158Z,101583.41
2023-03-28T18:54:01.685Z,101565.78
2023-03-28T18:56:29.063Z,101559.00
2023-03-28T18:58:57.455Z,101567.66
2023-03-28T19:01:24.261Z,101552.56
2023-03-28T19:03:52.436Z,101541.56
2023-03-28T19:06:19.461Z,101536.38
2023-03-28T19:08:47.640Z,101539.22
2023-03-28T19:11:16.857Z,101534.28
2023-03-28T19:13:44.119Z,101535.13
2023-03-28T19:16:15.875Z,101548.25
2023-03-28T19:18:47.008Z,101539.25
2023-03-28T19:21:14.264Z,101551.81
2023-03-28T19:23:41.281Z,101538.41
2023-03-28T19:26:09.784Z,101554.88
2023-03-28T19:28:36.732Z,101546.81
2023-03-28T19:31:08.734Z,101531.53
2023-03-28T19:33:37.374Z,101541.66
2023-03-28T19:36:06.208Z,101534.47
2023-03-28T19:38:35.153Z,101516.56
2023-03-28T19:41:04.156Z,101508.56
2023-03-28T19:43:31.579Z,101505.75
2023-03-28T19:46:06.932Z,101506.41
2023-03-28T19:48:35.072Z,101521.34
2023-03-28T19:51:04.975Z,101516.06
2023-03-28T19:53:32.485Z,101524.88
2023-03-28T19:56:00.229Z,101520.50
2023-03-28T19:58:28.439Z,101513.56
2023-03-28T20:00:57.143Z,101526.31
2023-03-28T20:03:24.192Z,101535.50
2023-03-28T20:05:51.314Z,101515.53
2023-03-28T20:08:19.124Z,101519.59
2023-03-28T20:10:48.251Z,101514.53
2023-03-28T20:13:17.696Z,101504.38
2023-03-28T20:15:45.923Z,101500.06
2023-03-28T20:18:15.101Z,101506.28
2023-03-28T20:20:42.798Z,101503.50
2023-03-28T20:23:09.997Z,101498.34
2023-03-28T20:25:38.236Z,101479.09
2023-03-28T20:28:05.382Z,101476.03
2023-03-28T20:30:32.348Z,101463.03
2023-03-28T20:32:59.507Z,101465.72
2023-03-28T20:35:27.415Z,101473.34
2023-03-28T20:37:54.615Z,101468.00
2023-03-28T20:40:23.369Z,101483.59
2023-03-28T20:42:51.121Z,101468.25
2023-03-28T20:45:24.607Z,101463.06
2023-03-28T20:47:59.268Z,101464.00
2023-03-28T20:50:34.019Z,101455.72
2023-03-28T20:53:02.440Z,101440.59
2023-03-28T20:55:32.383Z,101436.94
2023-03-28T20:57:59.498Z,101439.28
2023-03-28T21:00:30.286Z,101430.59
2023-03-28T21:02:57.434Z,101430.81
2023-03-28T21:05:25.345Z,101442.59
2023-03-28T21:07:53.106Z,101442.13
2023-03-28T21:10:20.865Z,101446.16
2023-03-28T21:12:49.070Z,101441.78
2023-03-28T21:15:16.294Z,101437.09
2023-03-28T21:17:43.223Z,101443.44
2023-03-28T21:20:10.926Z,101447.47
2023-03-28T21:22:38.655Z,101434.59
2023-03-28T21:25:10.763Z,101423.84
2023-03-28T21:27:37.828Z,101416.63
2023-03-28T21:30:08.353Z,101426.69
2023-03-28T21:32:36.191Z,101429.72
2023-03-28T21:35:04.349Z,101424.13
2023-03-28T21:37:32.026Z,101422.38
2023-03-28T21:40:20.687Z,101427.25
2023-03-28T21:42:47.617Z,101428.41
2023-03-28T21:45:14.892Z,101430.66
2023-03-28T21:47:42.763Z,101431.84
2023-03-28T21:50:11.961Z,101424.06
2023-03-28T21:52:40.786Z,101424.94
2023-03-28T21:55:09.630Z,101418.88
2023-03-28T21:57:36.988Z,101399.84
2023-03-28T22:00:14.974Z,101403.38
2023-03-28T22:02:43.058Z,101404.16
2023-03-28T22:05:22.001Z,101409.09
2023-03-28T22:07:53.742Z,101404.78
2023-03-28T22:10:21.476Z,101408.44
2023-03-28T22:12:48.333Z,101400.66
2023-03-28T22:15:15.384Z,101391.72
2023-03-28T22:17:42.986Z,101391.16
2023-03-28T22:20:11.805Z,101389.47
2023-03-28T22:22:44.953Z,101392.47
2023-03-28T22:25:13.063Z,101399.84
2023-03-28T22:27:40.567Z,101400.97
2023-03-28T22:30:11.107Z,101401.16
2023-03-28T22:32:39.317Z,101402.81
2023-03-28T22:35:06.835Z,101392.56
2023-03-28T22:37:34.368Z,101392.75
2023-03-28T22:40:01.159Z,101385.94
2023-03-28T22:42:28.864Z,101385.44
2023-03-28T22:44:56.169Z,101380.31
2023-03-28T22:47:30.793Z,101374.72
2023-03-28T22:50:01.984Z,101370.69
2023-03-28T22:52:31.798Z,101361.09
2023-03-28T22:54:58.818Z,101362.63
2023-03-28T22:57:25.872Z,101357.38
2023-03-28T22:59:53.773Z,101354.97
2023-03-28T23:02:21.743Z,101355.31
2023-03-28T23:04:48.667Z,101352.09
2023-03-28T23:07:16.449Z,101349.31
2023-03-28T23:09:43.729Z,101341.63
2023-03-28T23:12:10.803Z,101346.34
2023-03-28T23:14:37.676Z,101348.19
2023-03-28T23:17:04.745Z,101355.44
2023-03-28T23:19:32.296Z,101351.22
2023-03-28T23:22:00.183Z,101343.44
2023-03-28T23:24:27.982Z,101347.69
2023-03-28T23:26:56.138Z,101346.16
2023-03-28T23:29:27.496Z,101340.13
2023-03-28T23:31:54.438Z,101336.78
2023-03-28T23:34:24.193Z,101343.28
2023-03-28T23:36:52.348Z,101341.97
2023-03-28T23:39:19.177Z,101328.75
2023-03-28T23:41:48.866Z,101322.53
2023-03-28T23:44:16.196Z,101324.34
2023-03-28T23:46:42.986Z,101326.50
2023-03-28T23:49:12.369Z,101309.16
2023-03-28T23:51:39.132Z,101312.31
2023-03-28T23:54:06.114Z,101302.59
2023-03-28T23:56:32.913Z,101305.56
2023-03-28T23:59:02.635Z,101305.28
